createdAt,value
2022-11-30T00:02:05.925Z,97576.03
2022-11-30T00:05:10.616Z,97578.75
2022-11-30T00:08:13.668Z,97573.16
2022-11-30T00:11:20.832Z,97580.56
2022-11-30T00:14:23.760Z,97584.22
2022-11-30T00:17:26.822Z,97586.16
2022-11-30T00:20:31.416Z,97587.81
2022-11-30T00:23:34.964Z,97581.22
2022-11-30T00:26:37.902Z,97576.03
2022-11-30T00:29:40.846Z,97573.94
2022-11-30T00:32:43.646Z,97576.16
2022-11-30T00:35:58.914Z,97575.88
2022-11-30T00:39:01.810Z,97582.34
2022-11-30T00:42:04.980Z,97583.28
2022-11-30T00:45:08.577Z,97590.84
2022-11-30T00:51:50.089Z,97596.72
2022-11-30T00:54:52.957Z,97607.16
2022-11-30T00:57:55.861Z,97604.00
2022-11-30T01:01:01.682Z,97609.06
2022-11-30T01:04:05.726Z,97608.66
2022-11-30T01:07:10.000Z,97601.94
2022-11-30T01:10:13.119Z,97612.09
2022-11-30T01:13:16.073Z,97607.97
2022-11-30T01:16:22.019Z,97614.41
2022-11-30T01:19:25.380Z,97617.31
2022-11-30T01:22:30.144Z,97615.66
2022-11-30T01:25:33.021Z,97614.25
2022-11-30T01:28:38.275Z,97608.53
2022-11-30T01:31:41.111Z,97609.47
2022-11-30T01:34:44.210Z,97612.91
2022-11-30T01:37:48.526Z,97616.75
2022-11-30T01:40:51.704Z,97611.53
2022-11-30T01:43:56.151Z,97611.94
2022-11-30T01:47:01.921Z,97606.56
2022-11-30T01:50:09.136Z,97618.34
2022-11-30T01:53:14.140Z,97604.94
2022-11-30T01:56:18.135Z,97610.28
2022-11-30T01:59:23.160Z,97604.94
2022-11-30T02:02:33.875Z,97598.34
2022-11-30T02:05:38.982Z,97607.97
2022-11-30T02:08:43.335Z,97621.56
2022-11-30T02:11:46.388Z,97617.53
2022-11-30T02:14:55.342Z,97619.06
2022-11-30T02:18:07.288Z,97623.03
2022-11-30T02:21:15.039Z,97622.19
2022-11-30T02:24:40.309Z,97626.03
2022-11-30T02:27:59.715Z,97626.03
2022-11-30T02:31:09.600Z,97627.69
2022-11-30T02:34:15.957Z,97627.53
2022-11-30T02:37:20.254Z,97634.53
2022-11-30T02:40:23.380Z,97631.75
2022-11-30T02:43:29.374Z,97635.59
2022-11-30T02:46:40.843Z,97638.06
2022-11-30T02:49:49.896Z,97650.00
2022-11-30T02:52:53.823Z,97643.53
2022-11-30T02:55:56.830Z,97637.53
2022-11-30T02:59:00.210Z,97634.75
2022-11-30T03:02:04.418Z,97635.34
2022-11-30T03:05:08.206Z,97631.19
2022-11-30T03:08:11.051Z,97645.34
2022-11-30T03:11:14.402Z,97637.09
2022-11-30T03:14:17.551Z,97649.59
2022-11-30T03:17:21.777Z,97659.16
2022-11-30T03:20:24.764Z,97654.22
2022-11-30T03:23:27.745Z,97651.75
2022-11-30T03:26:30.697Z,97653.94
2022-11-30T03:29:34.194Z,97656.94
2022-11-30T03:32:38.431Z,97652.28
2022-11-30T03:35:41.287Z,97659.38
2022-11-30T03:38:44.096Z,97657.34
2022-11-30T03:41:46.982Z,97658.03
2022-11-30T03:44:49.881Z,97658.88
2022-11-30T03:47:54.084Z,97663.56
2022-11-30T03:50:56.932Z,97660.50
2022-11-30T03:54:00.015Z,97664.88
2022-11-30T03:57:03.524Z,97668.16
2022-11-30T04:00:08.000Z,97662.72
2022-11-30T04:03:16.684Z,97672.56
2022-11-30T04:06:20.739Z,97668.84
2022-11-30T04:09:23.637Z,97673.34
2022-11-30T04:12:26.648Z,97667.19
2022-11-30T04:15:29.518Z,97673.25
2022-11-30T04:18:34.855Z,97674.59
2022-11-30T04:21:37.990Z,97679.78
2022-11-30T04:24:40.823Z,97675.09
2022-11-30T04:27:46.732Z,97678.28
2022-11-30T04:30:49.667Z,97679.78
2022-11-30T04:33:59.842Z,97690.31
2022-11-30T04:37:02.766Z,97688.97
2022-11-30T04:40:07.150Z,97694.72
2022-11-30T04:43:11.279Z,97689.75
2022-11-30T04:46:17.297Z,97693.88
2022-11-30T04:49:21.853Z,97705.25
2022-11-30T04:52:24.957Z,97703.50
2022-11-30T04:55:32.915Z,97700.44
2022-11-30T04:58:37.996Z,97705.75
2022-11-30T05:01:43.490Z,97708.13
2022-11-30T05:04:51.304Z,97714.69
2022-11-30T05:07:57.187Z,97713.72
2022-11-30T05:11:00.416Z,97722.41
2022-11-30T05:14:03.538Z,97721.44
2022-11-30T05:17:06.793Z,97723.47
2022-11-30T05:20:12.393Z,97717.44
2022-11-30T05:23:16.305Z,97722.22
2022-11-30T05:26:22.034Z,97717.97
2022-11-30T05:29:25.158Z,97721.53
2022-11-30T05:32:28.225Z,97724.63
2022-11-30T05:35:35.204Z,97722.41
2022-11-30T05:38:38.408Z,97727.78
2022-11-30T05:41:41.391Z,97737.22
2022-11-30T05:44:45.457Z,97741.97
2022-11-30T05:47:50.734Z,97741.00
2022-11-30T05:50:55.613Z,97754.03
2022-11-30T05:54:00.188Z,97756.88
2022-11-30T05:57:05.630Z,97759.38
2022-11-30T06:00:10.971Z,97759.38
2022-11-30T06:03:19.917Z,97766.34
2022-11-30T06:06:27.333Z,97773.47
2022-11-30T06:09:30.407Z,97765.53
2022-11-30T06:12:33.454Z,97764.69
2022-11-30T06:15:37.718Z,97770.38
2022-11-30T06:18:40.750Z,97769.63
2022-11-30T06:21:45.071Z,97770.41
2022-11-30T06:24:48.309Z,97766.47
2022-11-30T06:27:51.458Z,97771.06
2022-11-30T06:30:55.188Z,97765.38
2022-11-30T06:33:58.529Z,97769.16
2022-11-30T06:37:02.824Z,97782.16
2022-11-30T06:40:08.770Z,97769.91
2022-11-30T06:43:11.847Z,97768.50
2022-11-30T06:46:14.784Z,97774.25
2022-11-30T06:49:17.666Z,97775.94
2022-11-30T06:52:25.821Z,97781.16
2022-11-30T06:55:32.693Z,97781.00
2022-11-30T06:58:36.448Z,97785.81
2022-11-30T07:01:41.998Z,97786.72
2022-11-30T07:04:45.241Z,97787.34
2022-11-30T07:07:49.694Z,97795.66
2022-11-30T07:10:52.638Z,97789.34
2022-11-30T07:13:55.563Z,97790.28
2022-11-30T07:16:58.927Z,97797.00
2022-11-30T07:20:01.830Z,97801.38
2022-11-30T07:23:20.364Z,97801.38
2022-11-30T07:26:23.252Z,97808.41
2022-11-30T07:29:26.097Z,97805.75
2022-11-30T07:32:29.033Z,97802.78
2022-11-30T07:35:31.850Z,97801.75
2022-11-30T07:38:36.074Z,97803.94
2022-11-30T07:41:39.381Z,97793.00
2022-11-30T07:44:43.525Z,97793.00
2022-11-30T07:47:46.368Z,97795.78
2022-11-30T07:50:49.981Z,97791.84
2022-11-30T07:53:57.210Z,97790.41
2022-11-30T07:57:00.102Z,97790.97
2022-11-30T08:00:03.663Z,97782.47
2022-11-30T08:03:14.925Z,97783.84
2022-11-30T08:06:20.115Z,97778.38
2022-11-30T08:09:24.417Z,97781.03
2022-11-30T08:12:27.266Z,97784.72
2022-11-30T08:15:33.879Z,97786.75
2022-11-30T08:18:37.300Z,97784.47
2022-11-30T08:21:40.192Z,97775.78
2022-11-30T08:24:44.490Z,97772.94
2022-11-30T08:27:47.293Z,97775.97
2022-11-30T08:30:50.230Z,97770.56
2022-11-30T08:33:56.896Z,97766.59
2022-11-30T08:36:59.774Z,97766.03
2022-11-30T08:40:04.076Z,97764.16
2022-11-30T08:43:07.981Z,97769.38
2022-11-30T08:46:42.460Z,97768.25
2022-11-30T08:49:36.450Z,97767.44
2022-11-30T08:52:39.280Z,97769.09
2022-11-30T08:55:43.526Z,97761.28
2022-11-30T08:58:47.870Z,97778.28
2022-11-30T09:01:50.678Z,97784.72
2022-11-30T09:04:53.645Z,97788.47
2022-11-30T09:07:56.471Z,97780.81
2022-11-30T09:11:00.699Z,97776.63
2022-11-30T09:14:05.337Z,97784.03
2022-11-30T09:17:08.152Z,97778.69
2022-11-30T09:20:12.086Z,97777.44
2022-11-30T09:23:14.973Z,97781.84
2022-11-30T09:26:20.815Z,97781.63
2022-11-30T09:29:24.074Z,97773.16
2022-11-30T09:32:26.973Z,97771.00
2022-11-30T09:35:29.889Z,97772.94
2022-11-30T09:38:33.272Z,97783.38
2022-11-30T09:42:01.759Z,97793.81
2022-11-30T09:45:09.645Z,97799.03
2022-11-30T09:48:24.554Z,97785.47
2022-11-30T09:51:32.960Z,97791.22
2022-11-30T09:54:39.664Z,97793.84
2022-11-30T09:57:47.481Z,97791.66
2022-11-30T10:00:50.413Z,97803.75
2022-11-30T10:03:53.289Z,97806.78
2022-11-30T10:07:09.388Z,97813.63
2022-11-30T10:10:37.191Z,97811.28
2022-11-30T10:13:55.470Z,97820.47
2022-11-30T10:17:05.825Z,97829.53
2022-11-30T10:20:40.661Z,97833.66
2022-11-30T10:23:58.688Z,97832.56
2022-11-30T10:27:08.001Z,97838.63
2022-11-30T10:30:18.366Z,97844.88
2022-11-30T10:33:29.262Z,97845.66
2022-11-30T10:36:39.139Z,97861.59
2022-11-30T10:39:50.484Z,97866.69
2022-11-30T10:43:05.578Z,97867.78
2022-11-30T10:46:19.854Z,97861.88
2022-11-30T10:49:24.313Z,97872.03
2022-11-30T10:52:30.142Z,97864.94
2022-11-30T10:55:37.227Z,97866.47
2022-11-30T10:58:46.045Z,97870.25
2022-11-30T11:01:52.713Z,97867.75
2022-11-30T11:05:10.080Z,97864.47
2022-11-30T11:08:20.328Z,97860.72
2022-11-30T11:11:33.769Z,97867.44
2022-11-30T11:14:38.273Z,97875.75
2022-11-30T11:17:42.663Z,97878.34
2022-11-30T11:20:46.221Z,97882.63
2022-11-30T11:23:52.593Z,97878.63
2022-11-30T11:26:57.285Z,97887.84
2022-11-30T11:30:04.784Z,97877.09
2022-11-30T11:33:21.980Z,97879.56
2022-11-30T11:36:30.102Z,97885.34
2022-11-30T11:39:33.001Z,97885.91
2022-11-30T11:42:38.792Z,97884.00
2022-11-30T11:45:41.715Z,97881.47
2022-11-30T11:48:58.361Z,97878.44
2022-11-30T11:52:03.899Z,97877.34
2022-11-30T11:55:14.513Z,97884.50
2022-11-30T11:58:23.117Z,97885.56
2022-11-30T12:01:43.022Z,97890.03
2022-11-30T12:04:54.014Z,97887.78
2022-11-30T12:08:07.839Z,97887.97
2022-11-30T12:11:17.743Z,97888.50
2022-11-30T12:14:21.110Z,97880.56
2022-11-30T12:17:42.559Z,97882.22
2022-11-30T12:20:56.896Z,97883.22
2022-11-30T12:24:18.021Z,97901.09
2022-11-30T12:27:31.060Z,97900.94
2022-11-30T12:30:41.350Z,97895.81
